Time;durP1;ratioP1;P1;durP2;ratioP2;P2;SDS_P1;SDS_P2;PMS_P1;PMS_P2;Temp;Humidity;BMP_temperature;BMP_pressure;BME280_temperature;BME280_humidity;BME280_pressure;Samples;Min_cycle;Max_cycle;Signal;HPM_P1;HPM_P2
2021/05/18 00:03:38;;;;;;;2.73;2.53;;;;;;;11.63;75.21;98711.70;232843;1173;116265;-68
2021/05/18 00:14:04;;;;;;;6.38;2.70;;;;;;;11.61;75.68;98711.20;233048;1174;116533;-67
2021/05/18 00:19:08;;;;;;;3.95;3.50;;;;;;;11.65;75.66;98716.78;233679;1174;115620;-67
2021/05/18 00:24:13;;;;;;;3.20;2.83;;;;;;;11.61;75.96;98715.73;233099;1174;115936;-70
2021/05/18 00:29:17;;;;;;;4.90;3.43;;;;;;;11.58;75.56;98706.39;232549;1174;115416;-70
2021/05/18 00:34:20;;;;;;;3.17;2.70;;;;;;;11.55;75.74;98706.92;234595;1174;114715;-67
2021/05/18 00:39:23;;;;;;;3.18;2.90;;;;;;;11.55;75.77;98706.92;235135;1174;115469;-67
2021/05/18 00:44:27;;;;;;;3.10;2.80;;;;;;;11.61;76.04;98711.20;235195;1174;114689;-67
2021/05/18 00:49:30;;;;;;;10.75;3.43;;;;;;;11.62;75.93;98701.30;235153;1174;114682;-67
2021/05/18 00:54:45;;;;;;;5.95;3.60;;;;;;;11.63;76.07;98698.36;234751;1174;139758;-68
2021/05/18 00:59:50;;;;;;;6.13;3.15;;;;;;;11.67;75.88;98699.44;234445;1174;115134;-68
2021/05/18 01:05:07;;;;;;;4.43;3.50;;;;;;;11.72;76.23;98695.97;233265;1174;115201;-68
2021/05/18 01:10:12;;;;;;;4.20;3.83;;;;;;;11.71;76.24;98691.70;232677;1174;115915;-67
2021/05/18 01:15:16;;;;;;;4.60;4.20;;;;;;;11.70;76.15;98690.09;232605;1174;115488;-67
2021/05/18 01:20:21;;;;;;;5.95;4.40;;;;;;;11.67;75.72;98693.30;232938;1174;115370;-66
2021/05/18 01:25:25;;;;;;;5.15;4.33;;;;;;;11.59;75.83;98691.98;233278;1174;115534;-67
2021/05/18 01:30:29;;;;;;;5.50;4.20;;;;;;;11.57;76.33;98688.77;233581;1174;114955;-66
2021/05/18 01:35:33;;;;;;;6.48;4.18;;;;;;;11.62;76.16;98683.41;232824;1174;116217;-67
2021/05/18 01:45:47;;;;;;;4.47;4.17;;;;;;;11.61;76.69;98689.05;232518;1174;115057;-66
2021/05/18 01:50:51;;;;;;;5.25;3.93;;;;;;;11.62;76.30;98688.75;232934;1174;115205;-67
2021/05/18 02:01:25;;;;;;;4.13;3.80;;;;;;;11.60;76.66;98688.25;233172;1174;115326;-68
2021/05/18 02:06:30;;;;;;;3.10;2.70;;;;;;;11.62;76.13;98686.08;233907;1174;116027;-69
2021/05/18 02:11:35;;;;;;;3.35;3.05;;;;;;;11.55;76.46;98690.11;232476;1170;115940;-68
2021/05/18 02:16:41;;;;;;;4.73;3.55;;;;;;;11.53;76.77;98693.04;233513;1174;115809;-68
2021/05/18 02:22:04;;;;;;;4.55;4.20;;;;;;;11.52;76.26;98691.44;234095;1174;115713;-68
2021/05/18 02:27:08;;;;;;;2.37;2.27;;;;;;;11.49;76.70;98705.31;233850;1174;115477;-68
2021/05/18 02:32:12;;;;;;;2.60;2.40;;;;;;;11.42;76.61;98702.09;233819;1174;114842;-69
2021/05/18 02:37:16;;;;;;;2.93;2.67;;;;;;;11.43;76.74;98714.37;235117;1170;116008;-68
2021/05/18 02:42:20;;;;;;;2.00;1.80;;;;;;;11.45;76.59;98721.05;233894;1176;117129;-67
2021/05/18 02:52:46;;;;;;;1.60;1.50;;;;;;;11.39;76.34;98722.09;235239;1174;116178;-70
2021/05/18 02:57:50;;;;;;;3.80;1.85;;;;;;;11.32;76.24;98721.55;232757;1175;116618;-68
2021/05/18 03:02:54;;;;;;;2.90;2.03;;;;;;;11.26;76.74;98722.63;233483;1167;116173;-67
2021/05/18 03:07:58;;;;;;;1.35;1.35;;;;;;;11.17;76.66;98729.53;233338;1174;174280;-67
2021/05/18 03:13:03;;;;;;;1.05;1.05;;;;;;;11.19;77.33;98739.94;232714;1175;116459;-69
2021/05/18 03:18:05;;;;;;;1.30;1.30;;;;;;;11.22;77.10;98731.41;234316;1174;116961;-67
2021/05/18 03:23:09;;;;;;;2.10;1.90;;;;;;;11.20;77.29;98726.34;233415;1174;116149;-68
2021/05/18 03:28:12;;;;;;;2.33;1.50;;;;;;;11.20;76.81;98736.20;232947;1174;116344;-67
2021/05/18 03:43:55;;;;;;;2.43;2.10;;;;;;;11.22;77.00;98753.55;232638;1174;115095;-69
2021/05/18 04:04:26;;;;;;;2.38;2.28;;;;;;;11.21;77.17;98761.81;232595;1174;116037;-70
2021/05/18 04:20:32;;;;;;;2.00;1.80;;;;;;;11.33;77.29;98773.84;233938;1174;115150;-67
2021/05/18 05:03:08;;;;;;;4.50;1.63;;;;;;;11.71;77.38;98790.47;234247;1174;115995;-67
2021/05/18 05:08:40;;;;;;;1.60;1.60;;;;;;;11.74;77.28;98796.09;233804;1174;115527;-67
2021/05/18 05:19:07;;;;;;;2.10;1.63;;;;;;;11.72;77.32;98806.23;233544;1174;116571;-68
2021/05/18 05:24:13;;;;;;;2.10;1.77;;;;;;;11.75;76.99;98812.91;232789;1174;116122;-66
2021/05/18 05:29:18;;;;;;;3.00;2.30;;;;;;;11.71;77.36;98807.30;232775;1173;116201;-66
2021/05/18 05:34:22;;;;;;;3.33;2.43;;;;;;;11.70;77.30;98811.03;233357;1174;116199;-68
2021/05/18 05:39:25;;;;;;;11.18;3.13;;;;;;;11.70;77.26;98816.37;232709;1174;116122;-68
2021/05/18 05:44:29;;;;;;;2.40;2.20;;;;;;;11.69;77.56;98817.43;232620;1174;115588;-67
2021/05/18 05:49:32;;;;;;;2.73;2.53;;;;;;;11.70;77.39;98819.03;232540;1174;118282;-66
2021/05/18 05:54:34;;;;;;;4.60;3.33;;;;;;;11.71;77.68;98828.65;232906;1174;116322;-67
2021/05/18 05:59:38;;;;;;;1.87;1.70;;;;;;;11.70;77.31;98831.58;233417;1174;115945;-67
2021/05/18 06:04:42;;;;;;;3.93;2.97;;;;;;;11.74;77.26;98829.99;232740;1174;116323;-68
2021/05/18 06:09:48;;;;;;;3.20;2.90;;;;;;;11.78;77.68;98833.77;233031;1174;115683;-67
2021/05/18 06:15:18;;;;;;;3.43;3.00;;;;;;;11.79;77.66;98836.18;232856;1174;115913;-66
2021/05/18 06:51:55;;;;;;;3.53;2.20;;;;;;;12.09;77.39;98872.81;234945;1174;116421;-68
2021/05/18 06:57:03;;;;;;;4.23;2.70;;;;;;;12.11;77.50;98865.34;234516;1174;115499;-68
2021/05/18 07:02:07;;;;;;;3.93;3.53;;;;;;;12.15;77.55;98878.97;233558;1174;115479;-65
2021/05/18 07:07:15;;;;;;;3.40;3.03;;;;;;;12.16;77.52;98885.92;232300;1174;116272;-67
2021/05/18 07:12:18;;;;;;;6.28;4.65;;;;;;;12.20;77.64;98881.66;232533;1174;115618;-63
2021/05/18 07:17:21;;;;;;;3.97;3.17;;;;;;;12.19;77.36;98889.94;233377;1174;115172;-67
2021/05/18 07:22:29;;;;;;;4.60;4.00;;;;;;;12.15;77.76;98892.33;233711;1174;115565;-66
2021/05/18 07:27:34;;;;;;;4.40;4.00;;;;;;;12.19;77.67;98903.30;233264;1174;115607;-66
2021/05/18 07:32:38;;;;;;;4.00;3.65;;;;;;;12.25;77.90;98897.67;233339;1174;115158;-66
2021/05/18 07:37:44;;;;;;;2.55;2.35;;;;;;;12.17;77.43;98900.88;233681;1174;115551;-67
2021/05/18 07:42:51;;;;;;;4.33;3.93;;;;;;;12.25;77.59;98905.69;232602;1174;115105;-66
2021/05/18 08:09:35;;;;;;;4.58;4.03;;;;;;;12.62;77.45;98924.16;233134;1174;115822;-66
2021/05/18 08:14:43;;;;;;;6.17;5.20;;;;;;;12.75;77.64;98920.16;232427;1171;115455;-64
2021/05/18 09:37:08;;;;;;;3.00;2.03;;;;;;;13.68;75.83;98957.98;233284;1174;115373;-66
2021/05/18 10:35:00;;;;;;;3.10;2.55;;;;;;;14.03;74.33;98981.14;233550;1174;115742;-67
2021/05/18 10:40:22;;;;;;;1.55;1.45;;;;;;;14.01;74.18;98977.94;233365;1174;115867;-67
2021/05/18 10:45:26;;;;;;;1.40;1.30;;;;;;;14.11;73.83;98977.06;234695;1174;116084;-67
2021/05/18 10:50:42;;;;;;;2.15;1.70;;;;;;;14.20;73.79;98979.97;232368;1174;115810;-67
2021/05/18 10:56:06;;;;;;;1.38;1.33;;;;;;;14.26;74.10;98982.36;234923;1174;115683;-68
2021/05/18 11:01:09;;;;;;;1.60;1.50;;;;;;;14.34;73.40;98980.98;234955;1174;115616;-68
2021/05/18 11:06:12;;;;;;;2.10;1.45;;;;;;;14.48;73.00;98977.41;234961;1174;115025;-65
2021/05/18 11:11:27;;;;;;;1.30;0.98;;;;;;;14.63;73.05;98986.45;234887;1174;115840;-67
2021/05/18 11:16:29;;;;;;;1.55;1.13;;;;;;;14.72;72.76;98987.43;232597;1167;115323;-67
2021/05/18 11:21:37;;;;;;;2.00;1.00;;;;;;;14.87;73.01;98983.84;233004;1168;116552;-68
2021/05/18 11:26:50;;;;;;;2.30;0.85;;;;;;;14.95;72.29;98994.78;232418;1174;115554;-68
2021/05/18 11:31:53;;;;;;;1.45;0.83;;;;;;;15.12;71.99;98991.67;232728;1174;116050;-67
2021/05/18 11:36:56;;;;;;;0.80;0.80;;;;;;;15.14;71.71;98995.68;232416;1174;115875;-67
2021/05/18 11:41:59;;;;;;;1.00;0.90;;;;;;;15.21;71.07;98991.88;232577;1174;115907;-67
2021/05/18 11:47:03;;;;;;;0.70;0.70;;;;;;;15.15;70.56;99001.85;232750;1174;116688;-67
2021/05/18 11:52:07;;;;;;;1.03;1.00;;;;;;;15.04;70.93;99005.69;232632;1177;115556;-67
2021/05/18 11:57:12;;;;;;;2.75;0.80;;;;;;;14.97;70.86;99002.56;232602;1174;116643;-67
2021/05/18 12:02:21;;;;;;;13.15;1.20;;;;;;;14.89;70.06;99003.95;232661;1174;115468;-68
2021/05/18 12:07:25;;;;;;;2.40;1.53;;;;;;;14.86;70.53;99009.08;232867;1175;117436;-68
2021/05/18 12:12:36;;;;;;;1.03;1.03;;;;;;;14.77;70.54;99014.23;233112;1175;116634;-68
2021/05/18 12:17:39;;;;;;;0.95;0.95;;;;;;;14.70;69.97;99013.73;232479;1174;116487;-68
2021/05/18 12:22:44;;;;;;;1.93;1.40;;;;;;;14.66;69.16;99015.40;233371;1175;116449;-68
2021/05/18 12:27:47;;;;;;;7.68;1.40;;;;;;;14.67;69.55;99017.00;232503;1174;116264;-67
2021/05/18 12:32:50;;;;;;;0.93;0.73;;;;;;;14.79;69.62;99012.06;232514;1174;116154;-67
2021/05/18 12:37:54;;;;;;;0.75;0.75;;;;;;;14.99;69.69;99014.58;232485;1174;116219;-67
2021/05/18 12:43:13;;;;;;;0.90;0.90;;;;;;;15.30;69.55;99017.00;232579;1174;115797;-68
2021/05/18 12:48:16;;;;;;;0.70;0.70;;;;;;;15.58;68.54;99029.67;233530;1174;116418;-67
2021/05/18 12:53:27;;;;;;;0.83;0.83;;;;;;;15.64;68.29;99033.08;232518;1170;115734;-68
2021/05/18 12:58:34;;;;;;;1.30;0.47;;;;;;;15.71;68.12;99028.17;233231;1174;175941;-68
2021/05/18 13:03:41;;;;;;;0.80;0.80;;;;;;;15.76;68.06;99034.30;235034;1174;115521;-68
2021/05/18 13:08:46;;;;;;;2.38;1.25;;;;;;;15.90;67.68;99034.41;234991;1174;115226;-68
2021/05/18 13:13:59;;;;;;;0.70;0.70;;;;;;;15.90;67.00;99033.63;235102;1174;115050;-68
2021/05/18 13:19:13;;;;;;;2.20;0.73;;;;;;;15.92;67.57;99036.80;234678;1174;116188;-68
2021/05/18 13:29:23;;;;;;;0.60;0.60;;;;;;;16.09;66.78;99032.58;234131;1174;115624;-67
2021/05/18 13:34:27;;;;;;;1.13;1.08;;;;;;;16.23;66.36;99035.34;232988;1174;115374;-68
2021/05/18 13:39:30;;;;;;;0.70;0.70;;;;;;;16.33;65.68;99027.16;233138;1174;114710;-68
2021/05/18 13:44:33;;;;;;;0.80;0.80;;;;;;;16.38;66.06;99024.41;233587;1174;115202;-68
2021/05/18 13:49:36;;;;;;;2.75;1.40;;;;;;;16.55;66.27;99028.47;232324;1174;116444;-69
2021/05/18 13:54:57;;;;;;;1.30;1.27;;;;;;;16.60;65.76;99029.20;233054;1174;115981;-68
2021/05/18 14:00:01;;;;;;;1.05;1.05;;;;;;;16.89;65.38;99034.45;232983;1174;116222;-68
2021/05/18 14:05:07;;;;;;;1.47;1.37;;;;;;;17.15;65.04;99030.25;232631;1176;116948;-68
2021/05/18 14:10:11;;;;;;;1.45;1.35;;;;;;;17.18;64.29;99042.33;232639;1174;115832;-68
2021/05/18 14:15:17;;;;;;;3.13;1.83;;;;;;;16.93;64.03;99040.84;232571;1174;207385;-67
2021/05/18 14:20:21;;;;;;;1.95;1.75;;;;;;;16.65;64.14;99036.44;233112;1174;116870;-67
2021/05/18 14:25:26;;;;;;;1.90;1.80;;;;;;;16.54;64.11;99037.63;232659;1174;116906;-68
2021/05/18 14:30:44;;;;;;;2.23;1.33;;;;;;;16.36;64.37;99047.30;232588;1174;195332;-68
2021/05/18 14:35:49;;;;;;;3.03;1.93;;;;;;;16.18;64.63;99048.88;232518;1174;116299;-68
2021/05/18 14:57:02;;;;;;;1.73;1.48;;;;;;;16.23;64.44;99054.17;235132;1174;115928;-68
2021/05/18 15:02:06;;;;;;;5.20;1.60;;;;;;;16.27;64.96;99054.40;235190;1174;115984;-68
2021/05/18 15:07:11;;;;;;;1.45;1.45;;;;;;;16.25;64.44;99067.33;235125;1174;114683;-68
2021/05/18 15:12:15;;;;;;;1.80;1.70;;;;;;;16.11;64.21;99062.67;235201;1174;116170;-68
2021/05/18 15:17:19;;;;;;;2.33;2.05;;;;;;;16.07;64.51;99063.52;235215;1170;115047;-68
2021/05/18 15:22:23;;;;;;;2.45;2.20;;;;;;;16.00;64.53;99068.44;233932;1169;115195;-68
2021/05/18 15:27:27;;;;;;;2.58;2.38;;;;;;;15.95;64.90;99076.55;234045;1174;115242;-68
2021/05/18 15:32:31;;;;;;;3.27;2.97;;;;;;;15.94;65.35;99077.64;232539;1174;114921;-68
2021/05/18 15:37:36;;;;;;;3.50;2.67;;;;;;;15.92;65.96;99077.92;232649;1174;114967;-68
2021/05/18 15:42:40;;;;;;;3.20;2.90;;;;;;;15.78;65.45;99085.08;233839;1174;115465;-68
2021/05/18 15:47:44;;;;;;;3.40;2.78;;;;;;;15.55;65.68;99086.63;232652;1174;115759;-68
2021/05/18 15:52:48;;;;;;;2.78;2.58;;;;;;;15.44;65.82;99085.91;233320;1174;115457;-68
2021/05/18 15:57:54;;;;;;;3.20;2.00;;;;;;;15.34;66.44;99087.86;232991;1174;115512;-68
2021/05/18 16:02:58;;;;;;;3.03;2.50;;;;;;;15.29;66.60;99095.95;232742;1175;114729;-68
2021/05/18 16:13:30;;;;;;;2.44;2.18;;;;;;;15.10;66.81;99088.59;232920;1174;115854;-68
2021/05/18 16:18:34;;;;;;;4.53;3.93;;;;;;;15.08;67.30;99082.70;232786;1174;115740;-68
2021/05/18 16:23:40;;;;;;;3.15;2.85;;;;;;;15.06;67.62;99094.80;232482;1174;116123;-68
2021/05/18 16:28:44;;;;;;;5.30;4.27;;;;;;;15.06;67.69;99084.86;233320;1174;116266;-69
2021/05/18 16:33:48;;;;;;;3.30;3.00;;;;;;;15.04;67.48;99096.95;233883;1174;115608;-68
2021/05/18 16:38:52;;;;;;;5.10;3.60;;;;;;;14.96;67.65;99108.30;232882;1174;115706;-67
2021/05/18 16:44:11;;;;;;;4.13;3.50;;;;;;;14.86;68.69;99103.79;233602;1174;116259;-68
2021/05/18 16:49:15;;;;;;;4.58;3.53;;;;;;;14.82;68.48;99106.23;232429;1174;115067;-68
2021/05/18 16:54:20;;;;;;;3.63;3.33;;;;;;;14.82;68.81;99114.27;233722;1174;114909;-67
2021/05/18 16:59:23;;;;;;;3.85;3.28;;;;;;;14.74;68.70;99124.78;233053;1174;175186;-67
2021/05/18 17:04:27;;;;;;;4.00;2.60;;;;;;;14.58;68.69;99128.63;235078;1174;115515;-68
2021/05/18 17:09:30;;;;;;;5.23;3.23;;;;;;;14.35;68.56;99125.48;235103;1174;115510;-67
2021/05/18 17:14:33;;;;;;;5.55;4.03;;;;;;;14.30;69.41;99132.73;235065;1174;114718;-67
2021/05/18 17:19:36;;;;;;;4.10;3.70;;;;;;;14.18;69.34;99140.27;233124;1174;115314;-67
2021/05/18 17:24:42;;;;;;;6.73;3.60;;;;;;;14.04;69.15;99150.77;232806;1174;115037;-66
2021/05/18 17:29:45;;;;;;;3.38;2.70;;;;;;;13.79;69.38;99156.95;232381;1174;115830;-67
2021/05/18 17:34:49;;;;;;;3.35;1.98;;;;;;;13.54;68.99;99160.45;233351;1174;115680;-68
2021/05/18 17:39:53;;;;;;;3.53;3.23;;;;;;;13.39;69.63;99160.45;232475;1174;115756;-67
2021/05/18 17:45:01;;;;;;;4.90;2.80;;;;;;;13.27;70.00;99158.03;233277;1174;115070;-67
2021/05/18 17:50:08;;;;;;;3.55;2.78;;;;;;;13.09;70.22;99155.84;233027;1174;115334;-66
2021/05/18 17:55:14;;;;;;;4.38;4.00;;;;;;;12.99;70.58;99158.48;232956;1174;116152;-66
2021/05/18 18:00:19;;;;;;;5.93;3.70;;;;;;;12.90;70.55;99152.84;232830;1174;116057;-67
2021/05/18 18:05:22;;;;;;;3.15;2.85;;;;;;;12.83;70.64;99160.33;233034;1174;115544;-67
2021/05/18 18:10:27;;;;;;;7.20;3.60;;;;;;;12.77;71.27;99164.86;232558;1174;116158;-67
2021/05/18 18:15:31;;;;;;;6.17;4.07;;;;;;;12.78;71.30;99162.98;232522;1174;115125;-67
2021/05/18 18:20:35;;;;;;;18.30;7.53;;;;;;;12.70;71.61;99155.47;233225;1174;115967;-67
2021/05/18 18:25:39;;;;;;;11.63;6.17;;;;;;;12.63;71.88;99163.73;232772;1174;115537;-67
2021/05/18 18:30:42;;;;;;;8.88;7.45;;;;;;;12.53;71.78;99157.55;233336;1174;115072;-67
2021/05/18 18:35:46;;;;;;;6.68;4.65;;;;;;;12.51;72.56;99160.48;233796;1174;116658;-67
2021/05/18 18:40:50;;;;;;;7.35;5.48;;;;;;;12.48;72.42;99172.50;232848;1170;115709;-67
2021/05/18 18:45:53;;;;;;;7.73;5.07;;;;;;;12.43;72.22;99175.15;232567;1174;115165;-67
2021/05/18 18:51:01;;;;;;;6.37;5.20;;;;;;;12.38;72.82;99171.64;233898;1174;115490;-68
2021/05/18 18:56:05;;;;;;;7.00;5.13;;;;;;;12.34;72.48;99179.38;233166;1174;115502;-67
2021/05/18 19:01:10;;;;;;;5.07;4.23;;;;;;;12.28;72.82;99184.94;232783;1174;114904;-68
2021/05/18 19:16:42;;;;;;;5.85;4.00;;;;;;;12.29;73.19;99186.55;235079;1174;115449;-68
2021/05/18 19:21:50;;;;;;;7.05;4.25;;;;;;;12.26;73.06;99190.55;234798;1174;115598;-68
2021/05/18 19:26:59;;;;;;;4.60;4.20;;;;;;;12.20;72.82;99188.93;233361;1174;117033;-67
2021/05/18 19:32:02;;;;;;;7.47;4.20;;;;;;;12.20;73.12;99188.93;233150;1174;115264;-67
2021/05/18 19:47:53;;;;;;;8.18;4.25;;;;;;;12.09;73.53;99205.95;233630;1174;116359;-67
2021/05/18 20:09:48;;;;;;;5.90;3.90;;;;;;;12.01;74.04;99207.22;232544;1176;117191;-68
2021/05/18 20:19:59;;;;;;;4.13;3.73;;;;;;;11.98;74.14;99214.94;232460;1174;116240;-67
2021/05/18 20:25:04;;;;;;;4.63;4.23;;;;;;;11.84;74.24;99208.45;233081;1174;115175;-66
2021/05/18 20:30:08;;;;;;;5.05;4.53;;;;;;;11.86;74.33;99214.34;232541;1168;115133;-65
2021/05/18 20:40:28;;;;;;;7.53;4.90;;;;;;;11.79;74.61;99222.55;232867;1174;115243;-66
2021/05/18 20:45:31;;;;;;;8.33;5.70;;;;;;;11.75;74.59;99218.75;232458;1174;115416;-67
2021/05/18 20:50:35;;;;;;;6.50;5.90;;;;;;;11.74;74.62;99215.27;233647;1174;115090;-66
2021/05/18 20:55:39;;;;;;;8.05;6.20;;;;;;;11.73;75.00;99223.53;233297;1174;116449;-64
2021/05/18 21:00:42;;;;;;;12.13;7.18;;;;;;;11.77;74.94;99222.81;233644;1174;116003;-67
2021/05/18 21:05:55;;;;;;;5.28;4.75;;;;;;;11.72;74.85;99233.41;233287;1174;115420;-67
2021/05/18 21:11:17;;;;;;;10.48;6.45;;;;;;;11.71;75.38;99228.33;235184;1174;115070;-68
2021/05/18 21:16:21;;;;;;;8.53;6.63;;;;;;;11.78;75.28;99224.42;235072;1174;115143;-68
2021/05/18 21:21:24;;;;;;;8.15;6.43;;;;;;;11.81;75.19;99233.80;234680;1170;116126;-68
2021/05/18 21:26:27;;;;;;;10.43;7.90;;;;;;;11.80;75.30;99241.00;232351;1174;115523;-65
2021/05/18 21:31:33;;;;;;;7.95;7.15;;;;;;;11.82;75.19;99239.94;233373;1174;115478;-68
2021/05/18 21:36:53;;;;;;;7.60;5.95;;;;;;;11.79;75.43;99231.38;233178;1174;115275;-68
2021/05/18 21:42:01;;;;;;;5.88;5.38;;;;;;;11.82;75.36;99232.73;232406;1174;115780;-65
2021/05/18 21:47:04;;;;;;;11.40;5.70;;;;;;;11.82;75.52;99237.27;233061;1174;116598;-67
2021/05/18 21:52:08;;;;;;;7.73;4.85;;;;;;;11.79;75.46;99227.90;233232;1174;115570;-64
2021/05/18 21:57:12;;;;;;;8.30;7.07;;;;;;;11.77;75.56;99222.81;232968;1174;115549;-65
2021/05/18 22:02:16;;;;;;;4.08;3.43;;;;;;;11.77;75.66;99220.14;233531;1174;116118;-65
2021/05/18 22:07:21;;;;;;;6.37;5.03;;;;;;;11.72;75.42;99220.06;232753;1174;115706;-65
2021/05/18 22:23:29;;;;;;;9.40;6.10;;;;;;;11.67;75.95;99228.02;232471;1170;116377;-68
2021/05/18 22:28:35;;;;;;;7.75;6.95;;;;;;;11.67;75.60;99227.22;232802;1174;115386;-67
2021/05/18 22:33:42;;;;;;;7.68;6.08;;;;;;;11.59;75.65;99225.84;233343;1174;115613;-68
2021/05/18 22:38:46;;;;;;;8.33;7.03;;;;;;;11.53;75.75;99221.51;232486;1174;115173;-66
2021/05/18 22:43:50;;;;;;;8.87;5.70;;;;;;;11.47;75.40;99225.18;233702;1174;115438;-65
2021/05/18 22:48:56;;;;;;;6.57;5.90;;;;;;;11.40;75.72;99229.91;232602;1174;115397;-66
2021/05/18 22:53:59;;;;;;;7.18;5.68;;;;;;;11.33;75.73;99235.44;232709;1174;115007;-68
2021/05/18 22:59:20;;;;;;;7.15;5.90;;;;;;;11.30;75.91;99232.50;233036;1174;118370;-67
2021/05/18 23:04:44;;;;;;;10.20;7.40;;;;;;;11.27;75.88;99227.66;233300;1174;116582;-69
2021/05/18 23:09:47;;;;;;;7.50;6.75;;;;;;;11.17;76.02;99222.21;234310;1174;116844;-67
2021/05/18 23:14:52;;;;;;;11.65;6.65;;;;;;;11.14;76.02;99226.19;235184;1174;115788;-67
2021/05/18 23:19:55;;;;;;;5.83;5.25;;;;;;;11.20;75.92;99227.05;235079;1174;115789;-69
2021/05/18 23:24:58;;;;;;;7.10;6.10;;;;;;;11.20;76.48;99221.72;233428;1174;117290;-67
2021/05/18 23:30:01;;;;;;;5.70;5.17;;;;;;;11.19;76.03;99220.10;232481;1176;117277;-67
2021/05/18 23:35:06;;;;;;;5.48;4.75;;;;;;;11.20;76.39;99217.19;233574;1176;116613;-67
2021/05/18 23:40:15;;;;;;;6.55;5.70;;;;;;;11.13;76.25;99217.38;233898;1174;117066;-68
2021/05/18 23:45:20;;;;;;;9.20;6.35;;;;;;;11.14;76.22;99226.19;232480;1174;118415;-69
2021/05/18 23:50:23;;;;;;;5.80;5.30;;;;;;;11.14;76.40;99226.98;232504;1176;115701;-68
2021/05/18 23:55:26;;;;;;;7.03;4.60;;;;;;;11.07;76.42;99222.90;232506;1174;115626;-68
